Last 24 Hours

Red Mountain

10 Minute Data | America/Los_Angeles
as of 9/5/26 11:56 PM PDT
Date & Time Temp (°F) Dew Pt (°F) RH (%) Wind Spd (mph) Wind Dir (°) Wind Gust (mph) Wind Gst Dir (°) Daily Max Temp (°F) Daily Min Temp (°F)
9/5/26 - 2330 68.4 51.3 54 3.7 NNW | 336 4.8 NW | 322 77.6 63.6
9/5/26 - 2320 68.3 51.2 54 2.8 N | 2 4.0 NNW | 341 77.6 63.6
9/5/26 - 2310 68.0 51.7 56 3.1 NE | 34 3.9 NE | 38 77.6 63.6
9/5/26 - 2300 68.0 51.6 56 1.7 ENE | 69 2.6 NNE | 29 77.6 63.6
9/5/26 - 2250 68.0 51.6 56 3.0 NE | 56 4.7 ENE | 57 77.6 63.6
9/5/26 - 2240 68.4 51.1 54 1.0 E | 98 2.8 NE | 43 77.6 63.6
9/5/26 - 2230 68.6 51.0 53 3.8 W | 267 5.4 W | 273 77.6 63.6
9/5/26 - 2220 68.9 51.0 53 5.5 WNW | 299 7.0 NW | 317 77.6 63.6
9/5/26 - 2210 69.1 50.9 52 6.9 NW | 307 8.4 WNW | 303 77.6 63.6
9/5/26 - 2200 69.0 51.0 53 6.4 NW | 304 7.9 WNW | 298 77.6 63.6
9/5/26 - 2150 68.9 51.4 54 6.5 WNW | 294 8.1 WNW | 282 77.6 63.6
9/5/26 - 2140 68.6 51.9 55 6.3 W | 269 7.7 W | 263 77.6 63.6
9/5/26 - 2130 68.5 52.4 56 5.6 W | 273 8.8 W | 270 77.6 63.6
9/5/26 - 2120 68.7 52.4 56 7.0 W | 267 10.1 W | 261 77.6 63.6
9/5/26 - 2110 68.6 52.5 56 6.2 W | 273 8.5 W | 276 77.6 63.6
9/5/26 - 2100 68.6 52.5 56 6.7 WSW | 253 8.9 W | 259 77.6 63.6
9/5/26 - 2050 68.4 53.0 58 6.1 WSW | 247 7.2 WSW | 239 77.6 63.6
9/5/26 - 2040 68.4 53.2 58 6.0 WSW | 244 8.1 SW | 235 77.6 63.6
9/5/26 - 2030 68.7 53.0 57 7.6 SW | 235 9.4 WSW | 238 77.6 63.6
9/5/26 - 2020 68.6 53.0 57 6.8 SW | 232 9.1 SW | 230 77.6 63.6
9/5/26 - 2010 68.7 52.8 57 5.9 WSW | 237 9.2 SW | 231 77.6 63.6
9/5/26 - 2000 68.8 51.7 54 5.2 WSW | 240 6.6 WSW | 237 77.6 63.6
9/5/26 - 1950 69.0 51.4 53 6.3 SW | 230 7.5 SW | 226 77.6 63.6
9/5/26 - 1940 69.3 51.4 53 7.4 SW | 235 9.6 WSW | 239 77.6 63.6
9/5/26 - 1930 69.7 51.4 52 8.5 WSW | 241 11.0 WSW | 240 77.6 63.6
9/5/26 - 1920 70.1 50.9 50 9.4 WSW | 239 12.0 WSW | 244 77.6 63.6
9/5/26 - 1910 70.6 50.7 49 11.5 WSW | 240 14.2 WSW | 242 77.6 63.6
9/5/26 - 1900 71.2 50.8 48 12.7 SW | 236 15.8 SW | 235 77.6 63.6
9/5/26 - 1850 72.0 50.7 47 12.3 WSW | 237 15.9 SW | 233 77.6 63.6
9/5/26 - 1840 72.4 50.9 47 12.1 SW | 233 18.2 SW | 228 77.6 63.6
9/5/26 - 1830 72.8 51.0 46 12.9 WSW | 237 16.8 WSW | 244 77.6 63.6
9/5/26 - 1820 73.7 51.0 45 11.0 SW | 235 17.1 WSW | 247 77.6 63.6
9/5/26 - 1810 73.6 50.7 45 14.1 SW | 236 19.4 SW | 236 77.6 63.6
9/5/26 - 1800 74.2 51.1 44 13.6 SW | 236 21.2 SW | 230 77.6 63.6
9/5/26 - 1750 73.6 50.9 45 13.8 SW | 236 20.2 WSW | 243 77.6 63.6
9/5/26 - 1740 74.0 50.8 44 13.3 SW | 234 21.0 WSW | 242 77.6 63.6
9/5/26 - 1730 74.5 51.0 44 11.0 SW | 233 17.2 SW | 228 77.6 63.6
9/5/26 - 1720 73.7 50.6 44 12.7 WSW | 237 18.1 SW | 220 77.6 63.6
9/5/26 - 1710 74.0 50.7 44 14.0 SW | 235 19.8 WSW | 250 77.6 63.6
9/5/26 - 1700 74.0 50.9 44 13.8 SW | 235 20.9 WSW | 247 77.6 63.6
9/5/26 - 1650 74.4 51.5 45 14.0 SW | 233 21.7 WSW | 242 77.6 63.6
9/5/26 - 1640 75.8 51.3 42 12.6 SW | 232 21.1 WSW | 242 77.6 63.6
9/5/26 - 1630 74.8 51.2 44 12.2 SW | 233 20.8 SSW | 210 77.4 63.6
9/5/26 - 1620 74.2 51.3 45 15.1 SW | 233 22.6 SW | 227 77.4 63.6
9/5/26 - 1610 74.0 50.9 44 14.5 SW | 233 23.7 SW | 236 77.4 63.6
9/5/26 - 1600 73.9 50.3 43 14.7 WSW | 237 22.1 SSW | 212 77.4 63.6
9/5/26 - 1550 74.0 49.6 42 15.7 SW | 235 23.6 WSW | 243 77.4 63.6
9/5/26 - 1540 74.6 49.4 41 15.0 WSW | 239 22.7 SSW | 211 77.4 63.6
9/5/26 - 1530 74.4 48.7 40 13.8 SW | 234 23.4 SSW | 202 77.4 63.6
9/5/26 - 1520 74.3 48.0 39 13.7 SW | 236 22.6 WSW | 243 77.4 63.6
9/5/26 - 1510 74.3 47.4 38 15.4 WSW | 237 22.6 SW | 228 77.4 63.6
9/5/26 - 1500 74.2 46.6 38 16.1 WSW | 244 25.1 WSW | 251 77.4 63.6
9/5/26 - 1450 73.8 47.9 40 14.8 WSW | 239 22.2 WSW | 244 77.4 63.6
9/5/26 - 1440 73.5 48.6 41 18.4 WSW | 241 24.7 SW | 231 77.4 63.6
9/5/26 - 1430 74.6 48.6 40 16.0 SW | 236 23.7 SW | 226 77.4 63.6
9/5/26 - 1420 74.8 49.6 41 14.7 SW | 232 23.4 SW | 223 77.4 63.6
9/5/26 - 1410 75.2 50.2 41 14.0 SW | 231 24.0 SW | 231 77.4 63.6
9/5/26 - 1400 74.7 50.0 42 16.2 SW | 236 25.7 WSW | 239 77.4 63.6
9/5/26 - 1350 74.6 50.3 42 15.5 SW | 222 25.4 SW | 233 77.4 63.6
9/5/26 - 1340 75.0 49.0 40 13.6 SW | 228 23.4 SW | 223 77.4 63.6
9/5/26 - 1330 75.3 48.2 38 14.4 SW | 231 24.5 SSW | 200 77.4 63.6
9/5/26 - 1320 74.8 47.2 37 13.8 SW | 224 23.4 SW | 225 76.9 63.6
9/5/26 - 1310 75.8 48.3 38 13.0 SW | 225 23.9 SW | 223 76.9 63.6
9/5/26 - 1300 74.7 49.4 41 10.0 SW | 219 18.3 SSW | 205 76.4 63.6
9/5/26 - 1250 75.1 47.8 38 14.5 SW | 232 22.5 SW | 235 76.4 63.6
9/5/26 - 1240 73.9 48.6 41 11.6 SW | 221 23.4 WSW | 247 75.8 63.6
9/5/26 - 1230 73.5 49.2 42 13.8 SW | 232 23.8 WSW | 240 75.8 63.6
9/5/26 - 1220 73.2 49.0 42 13.0 WSW | 239 19.6 SW | 221 75.8 63.6
9/5/26 - 1210 74.0 47.4 39 9.9 SW | 218 17.4 SW | 218 75.8 63.6
9/5/26 - 1200 72.8 48.1 42 12.2 SW | 227 21.8 SW | 231 75.8 63.6
9/5/26 - 1150 72.8 49.4 44 15.0 WSW | 237 20.5 SW | 234 75.8 63.6
9/5/26 - 1140 73.8 47.2 39 11.6 SW | 236 20.2 WSW | 244 75.8 63.6
9/5/26 - 1130 74.4 45.0 35 7.8 SW | 229 14.9 WSW | 244 75.8 63.6
9/5/26 - 1120 72.7 41.1 32 10.8 SW | 233 17.2 SW | 236 74.7 63.6
9/5/26 - 1110 73.2 43.1 34 8.3 SSW | 200 18.4 SSW | 211 74.7 63.6
9/5/26 - 1100 73.1 42.5 33 9.3 SSW | 203 15.6 SSW | 208 74.7 63.6
9/5/26 - 1050 72.1 37.8 29 8.4 SW | 218 15.9 SSW | 211 74.7 63.6
9/5/26 - 1040 72.4 35.6 26 10.3 SW | 224 17.8 SW | 220 74.7 63.6
9/5/26 - 1030 72.7 30.5 21 7.8 SW | 220 14.2 SSW | 196 74.7 63.6
9/5/26 - 1020 72.3 28.7 20 9.2 SW | 233 14.5 SW | 226 74.7 63.6
9/5/26 - 1010 73.4 28.7 19 7.2 SSW | 204 12.7 SSW | 194 74.7 63.6
9/5/26 - 1000 71.9 28.0 20 6.0 SW | 221 12.5 SSW | 201 73.5 63.6
9/5/26 - 0950 72.6 19.5 13 6.4 S | 185 11.6 SSE | 168 73.5 63.6
9/5/26 - 0940 72.3 22.8 16 5.1 SSW | 196 8.9 SSW | 208 72.8 63.6
9/5/26 - 0930 71.2 23.7 17 5.8 SSW | 198 11.0 S | 173 72.3 63.6
9/5/26 - 0920 71.5 24.1 17 5.2 S | 171 11.1 S | 171 72.3 63.6
9/5/26 - 0910 70.3 24.7 18 5.1 S | 188 8.9 S | 174 71.4 63.6
9/5/26 - 0900 69.7 25.8 19 5.3 S | 170 11.9 SSE | 150 70.7 63.6
9/5/26 - 0850 69.5 26.2 20 5.3 SSE | 149 8.8 SSE | 159 70.7 63.6
9/5/26 - 0840 68.5 27.0 21 5.6 SE | 132 9.0 SE | 138 69.5 63.6
9/5/26 - 0830 68.3 27.9 22 4.9 SE | 136 9.0 SSE | 164 69.5 63.6
9/5/26 - 0820 67.9 28.8 23 5.5 SE | 145 8.6 SE | 139 69.5 63.6
9/5/26 - 0810 68.1 29.2 23 4.8 SE | 143 8.1 SE | 134 69.5 63.6
9/5/26 - 0800 68.5 28.4 22 4.2 SE | 145 8.5 SSE | 165 69.5 63.6
9/5/26 - 0750 68.5 28.1 22 2.3 S | 171 5.6 SSW | 200 69.5 63.6
9/5/26 - 0740 69.0 29.2 23 0.9 ESE | 107 3.7 SE | 124 69.5 63.6
9/5/26 - 0730 67.9 29.8 24 1.2 E | 87 3.7 E | 98 68.7 63.6
9/5/26 - 0720 67.4 30.3 25 1.2 E | 88 3.4 E | 94 68.0 63.6
9/5/26 - 0710 66.3 30.5 26 3.2 E | 94 4.5 ESE | 114 66.6 63.6
9/5/26 - 0700 65.7 30.5 27 4.4 E | 82 6.4 E | 80 66.2 63.6
9/5/26 - 0650 65.6 30.8 27 4.6 E | 79 7.2 E | 80 65.7 63.6
9/5/26 - 0640 65.4 30.8 27 3.9 ENE | 77 6.6 ENE | 70 65.6 63.6
9/5/26 - 0630 65.3 29.4 26 2.3 ENE | 76 5.4 ENE | 78 65.6 63.6
9/5/26 - 0620 65.5 29.0 25 3.5 ESE | 110 6.0 ESE | 110 65.6 63.6
9/5/26 - 0610 65.4 29.0 25 3.0 ESE | 121 5.4 ESE | 106 65.6 63.6
9/5/26 - 0600 65.3 28.8 25 3.1 SE | 134 5.1 SE | 133 65.5 63.6
9/5/26 - 0550 64.7 29.6 27 1.8 SE | 146 3.1 SE | 131 64.9 63.6
9/5/26 - 0540 64.8 28.7 26 1.2 S | 186 2.2 S | 172 64.9 63.6
9/5/26 - 0530 64.6 28.8 26 0.4 S | 176 1.2 S | 171 64.9 63.6
9/5/26 - 0520 64.5 29.3 26 0.1 SSW | 203 1.2 SSW | 206 64.9 63.6
9/5/26 - 0510 64.8 29.9 27 1.1 SE | 139 3.1 SSE | 151 64.9 63.6
9/5/26 - 0500 64.6 30.1 27 2.9 SE | 145 3.9 SE | 143 64.8 63.6
9/5/26 - 0450 64.3 30.2 28 4.8 SE | 146 5.6 SSE | 152 64.8 63.6
9/5/26 - 0440 64.4 30.2 27 4.8 SSE | 148 6.6 SSE | 150 64.8 63.6
9/5/26 - 0430 64.6 30.2 27 4.5 SE | 138 5.8 SE | 135 64.8 63.6
9/5/26 - 0420 64.7 30.1 27 4.0 SE | 146 4.7 SE | 146 64.8 63.6
9/5/26 - 0410 64.6 30.2 27 3.6 SSE | 147 4.5 SSE | 154 64.8 63.6
9/5/26 - 0400 64.7 30.5 28 3.5 SSE | 150 4.2 SSE | 163 64.8 63.6
9/5/26 - 0350 64.8 30.6 28 3.2 SSE | 147 3.9 SE | 146 64.8 63.6
9/5/26 - 0340 64.5 30.9 28 2.5 SE | 143 3.4 SE | 138 64.7 63.6
9/5/26 - 0330 64.2 30.9 28 4.8 SE | 146 5.6 SSE | 147 64.7 63.6
9/5/26 - 0320 64.1 31.0 29 5.3 SE | 144 5.8 SE | 146 64.7 63.6
9/5/26 - 0310 64.1 31.2 29 5.2 SE | 139 5.8 SE | 139 64.7 63.6
9/5/26 - 0300 64.1 31.1 29 5.4 SE | 143 6.1 SE | 139 64.7 63.6
9/5/26 - 0250 63.9 31.1 29 5.5 SSE | 150 6.1 SSE | 151 64.7 63.6
9/5/26 - 0240 63.9 31.4 29 5.9 SSE | 153 6.9 SSE | 154 64.7 63.6
9/5/26 - 0230 64.0 31.6 30 6.5 SSE | 154 7.5 SSE | 152 64.7 63.6
9/5/26 - 0220 64.0 31.8 30 7.1 SSE | 150 8.0 SSE | 156 64.7 63.6
9/5/26 - 0210 64.2 31.8 30 7.4 SSE | 147 8.9 SSE | 148 64.7 63.6
9/5/26 - 0200 64.3 31.7 29 6.3 SE | 145 8.8 SSE | 148 64.7 63.6
9/5/26 - 0150 64.6 31.8 29 6.2 SE | 143 7.0 SE | 145 64.7 63.6
9/5/26 - 0140 64.6 32.3 30 6.4 SE | 140 7.4 SE | 139 64.7 63.6
9/5/26 - 0130 64.6 32.6 30 6.9 SE | 134 8.2 SE | 133 64.7 63.6
9/5/26 - 0120 64.2 32.7 31 8.7 SE | 132 9.9 SE | 132 64.3 63.6
9/5/26 - 0110 63.9 35.0 34 8.8 SE | 132 9.6 SE | 133 64.1 63.6
9/5/26 - 0100 63.5 37.9 39 8.6 SE | 131 9.2 SE | 129 73.7 59.3
9/5/26 - 0050 63.3 40.6 43 7.4 SE | 140 8.7 SE | 139 73.7 59.3
9/5/26 - 0040 63.4 41.1 44 7.0 SE | 143 8.0 SSE | 148 73.7 59.3
9/5/26 - 0030 63.6 40.9 43 5.6 SE | 135 6.6 SE | 144 73.7 59.3
9/5/26 - 0020 63.2 40.6 43 5.7 SE | 135 6.6 SE | 130 73.7 59.3
9/5/26 - 0010 63.1 40.6 44 3.4 SE | 136 6.1 SE | 133 73.7 59.3
9/5/26 - 0000 63.3 40.5 43 1.9 SE | 135 4.2 SE | 126 73.7 59.3
9/4/26 - 2350 63.9 40.6 42 1.9 WSW | 239 3.9 SW | 234 73.7 59.3
Max 75.8 53.2 58 18.4 - 25.7 - 77.6 63.6
Avg 69.4 41.1 37 7.9 - 12.1 - - -
Min 63.1 19.5 13 0.1 - 1.2 - 64.1 59.3